sensor_id;sensor_type;location;lat;lon;timestamp;P1;durP1;ratioP1;P2;durP2;ratioP2
8913;SDS011;4492;48.736;9.092;2023-08-30T00:00:34;14.43;;;10.03;;
8913;SDS011;4492;48.736;9.092;2023-08-30T00:03:00;12.83;;;9.40;;
8913;SDS011;4492;48.736;9.092;2023-08-30T00:05:26;10.13;;;9.20;;
8913;SDS011;4492;48.736;9.092;2023-08-30T00:07:52;8.87;;;7.97;;
8913;SDS011;4492;48.736;9.092;2023-08-30T00:10:21;9.23;;;8.33;;
8913;SDS011;4492;48.736;9.092;2023-08-30T00:12:46;9.80;;;8.90;;
8913;SDS011;4492;48.736;9.092;2023-08-30T00:15:12;11.43;;;10.33;;
8913;SDS011;4492;48.736;9.092;2023-08-30T00:17:39;13.33;;;11.33;;
8913;SDS011;4492;48.736;9.092;2023-08-30T00:20:04;12.07;;;10.87;;
8913;SDS011;4492;48.736;9.092;2023-08-30T00:22:31;11.90;;;10.20;;
8913;SDS011;4492;48.736;9.092;2023-08-30T00:24:57;9.60;;;8.60;;
8913;SDS011;4492;48.736;9.092;2023-08-30T00:27:22;12.40;;;9.80;;
8913;SDS011;4492;48.736;9.092;2023-08-30T00:29:49;9.57;;;8.60;;
8913;SDS011;4492;48.736;9.092;2023-08-30T00:32:15;9.07;;;8.27;;
8913;SDS011;4492;48.736;9.092;2023-08-30T00:34:40;9.70;;;8.80;;
8913;SDS011;4492;48.736;9.092;2023-08-30T00:37:06;10.33;;;9.23;;
8913;SDS011;4492;48.736;9.092;2023-08-30T00:39:31;9.70;;;8.80;;
8913;SDS011;4492;48.736;9.092;2023-08-30T00:41:57;9.50;;;8.63;;
8913;SDS011;4492;48.736;9.092;2023-08-30T00:44:22;10.20;;;7.57;;
8913;SDS011;4492;48.736;9.092;2023-08-30T00:46:48;11.57;;;8.93;;
8913;SDS011;4492;48.736;9.092;2023-08-30T00:49:13;9.27;;;8.47;;
8913;SDS011;4492;48.736;9.092;2023-08-30T00:51:39;9.47;;;8.57;;
8913;SDS011;4492;48.736;9.092;2023-08-30T00:54:05;10.50;;;8.90;;
8913;SDS011;4492;48.736;9.092;2023-08-30T00:56:32;10.17;;;9.17;;
8913;SDS011;4492;48.736;9.092;2023-08-30T00:58:58;10.63;;;7.83;;
8913;SDS011;4492;48.736;9.092;2023-08-30T01:01:24;9.50;;;8.60;;
8913;SDS011;4492;48.736;9.092;2023-08-30T01:03:50;8.70;;;7.90;;
8913;SDS011;4492;48.736;9.092;2023-08-30T01:06:16;8.57;;;7.70;;
8913;SDS011;4492;48.736;9.092;2023-08-30T01:08:41;8.97;;;8.17;;
8913;SDS011;4492;48.736;9.092;2023-08-30T01:11:11;9.63;;;8.63;;
8913;SDS011;4492;48.736;9.092;2023-08-30T01:16:32;8.90;;;7.47;;
8913;SDS011;4492;48.736;9.092;2023-08-30T01:18:59;12.80;;;9.33;;
8913;SDS011;4492;48.736;9.092;2023-08-30T01:22:01;10.13;;;8.43;;
8913;SDS011;4492;48.736;9.092;2023-08-30T01:24:32;9.43;;;8.53;;
8913;SDS011;4492;48.736;9.092;2023-08-30T01:27:11;10.07;;;9.07;;
8913;SDS011;4492;48.736;9.092;2023-08-30T01:29:37;9.97;;;9.00;;
8913;SDS011;4492;48.736;9.092;2023-08-30T01:32:08;9.60;;;8.60;;
8913;SDS011;4492;48.736;9.092;2023-08-30T01:34:38;12.70;;;10.20;;
8913;SDS011;4492;48.736;9.092;2023-08-30T01:37:06;11.03;;;9.70;;
8913;SDS011;4492;48.736;9.092;2023-08-30T01:39:33;14.37;;;9.83;;
8913;SDS011;4492;48.736;9.092;2023-08-30T01:42:01;12.63;;;10.93;;
8913;SDS011;4492;48.736;9.092;2023-08-30T01:44:28;11.90;;;10.13;;
8913;SDS011;4492;48.736;9.092;2023-08-30T01:46:54;10.67;;;8.77;;
8913;SDS011;4492;48.736;9.092;2023-08-30T01:49:21;10.47;;;9.47;;
8913;SDS011;4492;48.736;9.092;2023-08-30T01:51:48;14.37;;;11.00;;
8913;SDS011;4492;48.736;9.092;2023-08-30T01:54:16;13.53;;;11.60;;
8913;SDS011;4492;48.736;9.092;2023-08-30T01:56:44;13.70;;;10.60;;
8913;SDS011;4492;48.736;9.092;2023-08-30T01:59:10;13.30;;;10.93;;
8913;SDS011;4492;48.736;9.092;2023-08-30T02:01:36;16.83;;;12.07;;
8913;SDS011;4492;48.736;9.092;2023-08-30T02:04:01;14.53;;;11.20;;
8913;SDS011;4492;48.736;9.092;2023-08-30T02:06:30;12.00;;;10.80;;
8913;SDS011;4492;48.736;9.092;2023-08-30T02:09:09;13.73;;;10.60;;
8913;SDS011;4492;48.736;9.092;2023-08-30T02:11:44;12.20;;;10.53;;
8913;SDS011;4492;48.736;9.092;2023-08-30T02:14:11;14.63;;;11.50;;
8913;SDS011;4492;48.736;9.092;2023-08-30T02:16:42;12.53;;;11.17;;
8913;SDS011;4492;48.736;9.092;2023-08-30T02:19:10;12.30;;;11.00;;
8913;SDS011;4492;48.736;9.092;2023-08-30T02:21:37;14.03;;;11.57;;
8913;SDS011;4492;48.736;9.092;2023-08-30T02:24:03;14.77;;;12.43;;
8913;SDS011;4492;48.736;9.092;2023-08-30T02:26:29;13.13;;;11.73;;
8913;SDS011;4492;48.736;9.092;2023-08-30T02:28:54;12.77;;;11.47;;
8913;SDS011;4492;48.736;9.092;2023-08-30T02:31:20;12.30;;;10.67;;
8913;SDS011;4492;48.736;9.092;2023-08-30T02:33:45;15.87;;;12.07;;
8913;SDS011;4492;48.736;9.092;2023-08-30T02:36:11;15.37;;;11.83;;
8913;SDS011;4492;48.736;9.092;2023-08-30T02:38:36;18.43;;;13.07;;
8913;SDS011;4492;48.736;9.092;2023-08-30T02:41:02;16.27;;;12.90;;
8913;SDS011;4492;48.736;9.092;2023-08-30T02:43:28;17.40;;;13.73;;
8913;SDS011;4492;48.736;9.092;2023-08-30T02:45:53;16.50;;;12.30;;
8913;SDS011;4492;48.736;9.092;2023-08-30T02:48:19;15.13;;;12.53;;
8913;SDS011;4492;48.736;9.092;2023-08-30T02:50:45;16.33;;;13.43;;
8913;SDS011;4492;48.736;9.092;2023-08-30T02:53:10;16.13;;;14.43;;
8913;SDS011;4492;48.736;9.092;2023-08-30T02:55:36;15.67;;;12.80;;
8913;SDS011;4492;48.736;9.092;2023-08-30T02:58:01;17.80;;;13.13;;
8913;SDS011;4492;48.736;9.092;2023-08-30T03:00:27;13.43;;;11.27;;
8913;SDS011;4492;48.736;9.092;2023-08-30T03:02:52;13.80;;;11.40;;
8913;SDS011;4492;48.736;9.092;2023-08-30T03:05:18;13.07;;;11.67;;
8913;SDS011;4492;48.736;9.092;2023-08-30T03:07:44;15.97;;;13.20;;
8913;SDS011;4492;48.736;9.092;2023-08-30T03:10:10;13.73;;;11.67;;
8913;SDS011;4492;48.736;9.092;2023-08-30T03:12:36;18.03;;;12.93;;
8913;SDS011;4492;48.736;9.092;2023-08-30T03:15:02;15.90;;;12.27;;
8913;SDS011;4492;48.736;9.092;2023-08-30T03:17:29;13.37;;;11.47;;
8913;SDS011;4492;48.736;9.092;2023-08-30T03:19:54;16.40;;;13.27;;
8913;SDS011;4492;48.736;9.092;2023-08-30T03:22:20;18.77;;;14.83;;
8913;SDS011;4492;48.736;9.092;2023-08-30T03:24:46;13.90;;;12.23;;
8913;SDS011;4492;48.736;9.092;2023-08-30T03:27:11;15.87;;;12.73;;
8913;SDS011;4492;48.736;9.092;2023-08-30T03:29:37;14.40;;;12.20;;
8913;SDS011;4492;48.736;9.092;2023-08-30T03:32:02;16.80;;;13.53;;
8913;SDS011;4492;48.736;9.092;2023-08-30T03:34:28;13.97;;;11.80;;
8913;SDS011;4492;48.736;9.092;2023-08-30T03:36:53;13.80;;;11.27;;
8913;SDS011;4492;48.736;9.092;2023-08-30T03:39:22;13.80;;;11.90;;
8913;SDS011;4492;48.736;9.092;2023-08-30T03:41:49;16.13;;;11.53;;
8913;SDS011;4492;48.736;9.092;2023-08-30T03:44:15;12.80;;;10.67;;
8913;SDS011;4492;48.736;9.092;2023-08-30T03:46:40;13.03;;;11.40;;
8913;SDS011;4492;48.736;9.092;2023-08-30T03:49:06;13.47;;;10.93;;
8913;SDS011;4492;48.736;9.092;2023-08-30T03:51:31;15.70;;;12.60;;
8913;SDS011;4492;48.736;9.092;2023-08-30T03:53:57;13.37;;;10.80;;
8913;SDS011;4492;48.736;9.092;2023-08-30T03:56:22;11.80;;;10.60;;
8913;SDS011;4492;48.736;9.092;2023-08-30T03:58:48;12.30;;;10.73;;
8913;SDS011;4492;48.736;9.092;2023-08-30T04:01:14;14.80;;;11.83;;
8913;SDS011;4492;48.736;9.092;2023-08-30T04:03:39;15.83;;;12.93;;
8913;SDS011;4492;48.736;9.092;2023-08-30T04:06:05;14.50;;;11.93;;
8913;SDS011;4492;48.736;9.092;2023-08-30T04:08:30;15.73;;;11.13;;
8913;SDS011;4492;48.736;9.092;2023-08-30T04:10:56;15.43;;;13.47;;
8913;SDS011;4492;48.736;9.092;2023-08-30T04:13:22;15.67;;;12.40;;
8913;SDS011;4492;48.736;9.092;2023-08-30T04:15:47;13.37;;;11.60;;
8913;SDS011;4492;48.736;9.092;2023-08-30T04:18:13;12.87;;;10.73;;
8913;SDS011;4492;48.736;9.092;2023-08-30T04:20:43;12.20;;;10.90;;
8913;SDS011;4492;48.736;9.092;2023-08-30T04:23:09;16.33;;;12.77;;
8913;SDS011;4492;48.736;9.092;2023-08-30T04:25:34;18.57;;;14.50;;
8913;SDS011;4492;48.736;9.092;2023-08-30T04:28:00;15.97;;;13.33;;
8913;SDS011;4492;48.736;9.092;2023-08-30T04:30:25;13.97;;;11.30;;
8913;SDS011;4492;48.736;9.092;2023-08-30T04:32:51;14.20;;;12.10;;
8913;SDS011;4492;48.736;9.092;2023-08-30T04:35:17;15.50;;;12.77;;
8913;SDS011;4492;48.736;9.092;2023-08-30T04:37:43;14.30;;;11.93;;
8913;SDS011;4492;48.736;9.092;2023-08-30T04:40:09;16.37;;;13.43;;
8913;SDS011;4492;48.736;9.092;2023-08-30T04:42:35;18.80;;;14.77;;
8913;SDS011;4492;48.736;9.092;2023-08-30T04:45:01;18.03;;;14.87;;
8913;SDS011;4492;48.736;9.092;2023-08-30T04:47:28;20.77;;;15.77;;
8913;SDS011;4492;48.736;9.092;2023-08-30T04:49:54;17.77;;;14.20;;
8913;SDS011;4492;48.736;9.092;2023-08-30T04:52:20;16.97;;;14.20;;
8913;SDS011;4492;48.736;9.092;2023-08-30T04:54:45;17.53;;;15.00;;
8913;SDS011;4492;48.736;9.092;2023-08-30T04:57:11;17.17;;;14.17;;
8913;SDS011;4492;48.736;9.092;2023-08-30T04:59:42;19.13;;;13.77;;
8913;SDS011;4492;48.736;9.092;2023-08-30T05:02:08;19.00;;;14.83;;
8913;SDS011;4492;48.736;9.092;2023-08-30T05:04:34;15.10;;;13.07;;
8913;SDS011;4492;48.736;9.092;2023-08-30T05:07:00;15.37;;;11.23;;
8913;SDS011;4492;48.736;9.092;2023-08-30T05:09:25;12.87;;;11.13;;
8913;SDS011;4492;48.736;9.092;2023-08-30T05:11:51;15.17;;;12.83;;
8913;SDS011;4492;48.736;9.092;2023-08-30T05:14:17;14.27;;;10.43;;
8913;SDS011;4492;48.736;9.092;2023-08-30T05:16:43;11.80;;;10.40;;
8913;SDS011;4492;48.736;9.092;2023-08-30T05:19:08;15.80;;;12.33;;
8913;SDS011;4492;48.736;9.092;2023-08-30T05:21:34;18.40;;;14.00;;
8913;SDS011;4492;48.736;9.092;2023-08-30T05:23:59;18.20;;;12.33;;
8913;SDS011;4492;48.736;9.092;2023-08-30T05:26:25;13.03;;;11.13;;
8913;SDS011;4492;48.736;9.092;2023-08-30T05:28:51;12.27;;;10.07;;
8913;SDS011;4492;48.736;9.092;2023-08-30T05:31:16;11.97;;;10.37;;
8913;SDS011;4492;48.736;9.092;2023-08-30T05:33:42;12.07;;;9.50;;
8913;SDS011;4492;48.736;9.092;2023-08-30T05:36:07;12.33;;;10.17;;
8913;SDS011;4492;48.736;9.092;2023-08-30T05:38:33;14.10;;;10.80;;
8913;SDS011;4492;48.736;9.092;2023-08-30T05:40:58;11.23;;;10.13;;
8913;SDS011;4492;48.736;9.092;2023-08-30T05:43:24;11.10;;;9.27;;
8913;SDS011;4492;48.736;9.092;2023-08-30T05:45:49;10.13;;;9.00;;
8913;SDS011;4492;48.736;9.092;2023-08-30T05:48:15;9.13;;;8.23;;
8913;SDS011;4492;48.736;9.092;2023-08-30T05:50:40;11.27;;;10.07;;
8913;SDS011;4492;48.736;9.092;2023-08-30T05:53:06;9.17;;;8.33;;
8913;SDS011;4492;48.736;9.092;2023-08-30T05:55:32;9.00;;;8.20;;
8913;SDS011;4492;48.736;9.092;2023-08-30T05:57:57;7.87;;;7.17;;
8913;SDS011;4492;48.736;9.092;2023-08-30T06:00:23;8.97;;;8.07;;
8913;SDS011;4492;48.736;9.092;2023-08-30T06:02:50;7.73;;;7.13;;
8913;SDS011;4492;48.736;9.092;2023-08-30T06:05:16;8.80;;;8.00;;
8913;SDS011;4492;48.736;9.092;2023-08-30T06:07:42;9.33;;;8.33;;
8913;SDS011;4492;48.736;9.092;2023-08-30T06:10:08;7.53;;;6.77;;
8913;SDS011;4492;48.736;9.092;2023-08-30T06:12:34;8.80;;;7.90;;
8913;SDS011;4492;48.736;9.092;2023-08-30T06:14:59;10.63;;;9.53;;
8913;SDS011;4492;48.736;9.092;2023-08-30T06:17:25;9.40;;;7.93;;
8913;SDS011;4492;48.736;9.092;2023-08-30T06:19:50;8.33;;;7.53;;
8913;SDS011;4492;48.736;9.092;2023-08-30T06:22:16;8.10;;;7.40;;
8913;SDS011;4492;48.736;9.092;2023-08-30T06:24:42;8.33;;;7.57;;
8913;SDS011;4492;48.736;9.092;2023-08-30T06:27:07;7.00;;;6.40;;
8913;SDS011;4492;48.736;9.092;2023-08-30T06:29:33;7.20;;;6.57;;
8913;SDS011;4492;48.736;9.092;2023-08-30T06:31:59;7.33;;;6.60;;
8913;SDS011;4492;48.736;9.092;2023-08-30T06:34:24;8.20;;;7.40;;
8913;SDS011;4492;48.736;9.092;2023-08-30T06:36:50;7.60;;;6.90;;
8913;SDS011;4492;48.736;9.092;2023-08-30T06:39:17;7.50;;;6.80;;
8913;SDS011;4492;48.736;9.092;2023-08-30T06:41:42;6.87;;;6.27;;
8913;SDS011;4492;48.736;9.092;2023-08-30T06:44:08;7.63;;;6.80;;
8913;SDS011;4492;48.736;9.092;2023-08-30T06:46:33;7.13;;;6.53;;
8913;SDS011;4492;48.736;9.092;2023-08-30T06:48:59;7.30;;;6.70;;
8913;SDS011;4492;48.736;9.092;2023-08-30T06:51:24;10.53;;;8.10;;
8913;SDS011;4492;48.736;9.092;2023-08-30T06:53:50;8.77;;;7.97;;
8913;SDS011;4492;48.736;9.092;2023-08-30T06:56:15;8.53;;;7.67;;
8913;SDS011;4492;48.736;9.092;2023-08-30T06:58:41;7.27;;;6.60;;
8913;SDS011;4492;48.736;9.092;2023-08-30T07:01:07;7.13;;;6.53;;
8913;SDS011;4492;48.736;9.092;2023-08-30T07:03:33;8.70;;;7.90;;
8913;SDS011;4492;48.736;9.092;2023-08-30T07:05:59;9.27;;;7.70;;
8913;SDS011;4492;48.736;9.092;2023-08-30T07:08:24;8.17;;;7.37;;
8913;SDS011;4492;48.736;9.092;2023-08-30T07:10:51;8.17;;;7.37;;
8913;SDS011;4492;48.736;9.092;2023-08-30T07:13:17;9.30;;;7.03;;
8913;SDS011;4492;48.736;9.092;2023-08-30T07:15:42;8.47;;;7.63;;
8913;SDS011;4492;48.736;9.092;2023-08-30T07:18:08;8.57;;;7.77;;
8913;SDS011;4492;48.736;9.092;2023-08-30T07:20:34;7.73;;;6.80;;
8913;SDS011;4492;48.736;9.092;2023-08-30T07:23:01;9.30;;;7.60;;
8913;SDS011;4492;48.736;9.092;2023-08-30T07:25:27;8.97;;;8.17;;
8913;SDS011;4492;48.736;9.092;2023-08-30T07:27:55;7.40;;;6.57;;
8913;SDS011;4492;48.736;9.092;2023-08-30T07:30:21;6.87;;;6.17;;
8913;SDS011;4492;48.736;9.092;2023-08-30T07:32:46;6.20;;;5.70;;
8913;SDS011;4492;48.736;9.092;2023-08-30T07:35:12;7.10;;;5.70;;
8913;SDS011;4492;48.736;9.092;2023-08-30T07:37:38;6.93;;;6.33;;
8913;SDS011;4492;48.736;9.092;2023-08-30T07:40:04;6.03;;;5.50;;
8913;SDS011;4492;48.736;9.092;2023-08-30T07:42:30;6.90;;;6.30;;
8913;SDS011;4492;48.736;9.092;2023-08-30T07:44:55;5.53;;;5.03;;
8913;SDS011;4492;48.736;9.092;2023-08-30T07:47:21;7.40;;;5.73;;
8913;SDS011;4492;48.736;9.092;2023-08-30T07:49:46;5.33;;;4.93;;
8913;SDS011;4492;48.736;9.092;2023-08-30T07:52:12;5.80;;;5.20;;
8913;SDS011;4492;48.736;9.092;2023-08-30T07:54:38;5.57;;;5.17;;
8913;SDS011;4492;48.736;9.092;2023-08-30T07:57:04;5.40;;;5.00;;
8913;SDS011;4492;48.736;9.092;2023-08-30T07:59:32;6.63;;;5.30;;
8913;SDS011;4492;48.736;9.092;2023-08-30T08:02:01;6.23;;;5.63;;
8913;SDS011;4492;48.736;9.092;2023-08-30T08:04:28;6.50;;;5.90;;
8913;SDS011;4492;48.736;9.092;2023-08-30T08:06:54;5.87;;;5.33;;
8913;SDS011;4492;48.736;9.092;2023-08-30T08:09:19;6.17;;;5.67;;
8913;SDS011;4492;48.736;9.092;2023-08-30T08:11:46;6.20;;;5.70;;
8913;SDS011;4492;48.736;9.092;2023-08-30T08:14:13;6.70;;;6.10;;
8913;SDS011;4492;48.736;9.092;2023-08-30T08:16:39;6.23;;;5.63;;
8913;SDS011;4492;48.736;9.092;2023-08-30T08:19:04;5.43;;;4.97;;
8913;SDS011;4492;48.736;9.092;2023-08-30T08:21:31;5.37;;;4.93;;
8913;SDS011;4492;48.736;9.092;2023-08-30T08:23:56;4.43;;;4.13;;
8913;SDS011;4492;48.736;9.092;2023-08-30T08:26:22;5.47;;;4.97;;
8913;SDS011;4492;48.736;9.092;2023-08-30T08:28:47;5.10;;;4.70;;
8913;SDS011;4492;48.736;9.092;2023-08-30T08:31:13;4.90;;;4.50;;
8913;SDS011;4492;48.736;9.092;2023-08-30T08:33:39;4.70;;;4.40;;
8913;SDS011;4492;48.736;9.092;2023-08-30T08:36:05;5.67;;;5.17;;
8913;SDS011;4492;48.736;9.092;2023-08-30T08:38:30;4.80;;;4.40;;
8913;SDS011;4492;48.736;9.092;2023-08-30T08:41:03;4.97;;;4.57;;
8913;SDS011;4492;48.736;9.092;2023-08-30T08:43:31;4.90;;;4.50;;
8913;SDS011;4492;48.736;9.092;2023-08-30T08:46:01;4.50;;;4.03;;
8913;SDS011;4492;48.736;9.092;2023-08-30T08:48:28;5.07;;;4.67;;
8913;SDS011;4492;48.736;9.092;2023-08-30T08:50:57;6.10;;;5.00;;
8913;SDS011;4492;48.736;9.092;2023-08-30T08:53:22;4.77;;;4.47;;
8913;SDS011;4492;48.736;9.092;2023-08-30T08:55:48;4.97;;;4.53;;
8913;SDS011;4492;48.736;9.092;2023-08-30T08:58:14;5.63;;;4.30;;
8913;SDS011;4492;48.736;9.092;2023-08-30T09:00:43;4.70;;;4.40;;
8913;SDS011;4492;48.736;9.092;2023-08-30T09:03:10;4.17;;;3.90;;
8913;SDS011;4492;48.736;9.092;2023-08-30T09:05:39;4.93;;;4.00;;
8913;SDS011;4492;48.736;9.092;2023-08-30T09:08:05;3.63;;;3.37;;
8913;SDS011;4492;48.736;9.092;2023-08-30T09:10:31;3.80;;;3.60;;
8913;SDS011;4492;48.736;9.092;2023-08-30T09:12:58;3.43;;;3.23;;
8913;SDS011;4492;48.736;9.092;2023-08-30T09:15:30;3.60;;;3.30;;
8913;SDS011;4492;48.736;9.092;2023-08-30T09:17:59;4.13;;;3.83;;
8913;SDS011;4492;48.736;9.092;2023-08-30T09:20:26;3.93;;;3.53;;
8913;SDS011;4492;48.736;9.092;2023-08-30T09:22:52;3.53;;;3.33;;
8913;SDS011;4492;48.736;9.092;2023-08-30T09:25:24;3.33;;;3.03;;
8913;SDS011;4492;48.736;9.092;2023-08-30T09:27:51;3.57;;;3.27;;
8913;SDS011;4492;48.736;9.092;2023-08-30T09:30:22;3.33;;;3.03;;
8913;SDS011;4492;48.736;9.092;2023-08-30T09:32:47;3.17;;;2.83;;
8913;SDS011;4492;48.736;9.092;2023-08-30T09:35:13;3.27;;;3.00;;
8913;SDS011;4492;48.736;9.092;2023-08-30T09:37:38;2.97;;;2.77;;
8913;SDS011;4492;48.736;9.092;2023-08-30T09:40:04;3.13;;;2.93;;
8913;SDS011;4492;48.736;9.092;2023-08-30T09:42:31;3.80;;;2.87;;
8913;SDS011;4492;48.736;9.092;2023-08-30T09:44:56;3.10;;;2.80;;
8913;SDS011;4492;48.736;9.092;2023-08-30T09:47:23;3.00;;;2.53;;
8913;SDS011;4492;48.736;9.092;2023-08-30T09:49:52;5.47;;;3.20;;
8913;SDS011;4492;48.736;9.092;2023-08-30T09:52:19;3.03;;;2.77;;
8913;SDS011;4492;48.736;9.092;2023-08-30T09:54:48;2.63;;;2.43;;
8913;SDS011;4492;48.736;9.092;2023-08-30T09:57:14;2.83;;;2.63;;
8913;SDS011;4492;48.736;9.092;2023-08-30T09:59:41;2.83;;;2.47;;
8913;SDS011;4492;48.736;9.092;2023-08-30T10:02:08;2.73;;;2.57;;
8913;SDS011;4492;48.736;9.092;2023-08-30T10:04:35;2.50;;;2.30;;
8913;SDS011;4492;48.736;9.092;2023-08-30T10:07:06;2.27;;;2.03;;
8913;SDS011;4492;48.736;9.092;2023-08-30T10:09:32;3.30;;;3.10;;
8913;SDS011;4492;48.736;9.092;2023-08-30T10:11:58;4.47;;;3.30;;
8913;SDS011;4492;48.736;9.092;2023-08-30T10:14:26;4.13;;;3.07;;
8913;SDS011;4492;48.736;9.092;2023-08-30T10:16:52;3.53;;;3.33;;
8913;SDS011;4492;48.736;9.092;2023-08-30T10:19:27;2.90;;;2.70;;
8913;SDS011;4492;48.736;9.092;2023-08-30T10:21:54;3.40;;;3.10;;
8913;SDS011;4492;48.736;9.092;2023-08-30T10:24:28;3.00;;;2.80;;
8913;SDS011;4492;48.736;9.092;2023-08-30T10:27:02;2.80;;;2.60;;
8913;SDS011;4492;48.736;9.092;2023-08-30T10:29:30;2.77;;;2.40;;
8913;SDS011;4492;48.736;9.092;2023-08-30T10:32:01;2.43;;;2.33;;
8913;SDS011;4492;48.736;9.092;2023-08-30T10:34:33;5.10;;;3.00;;
8913;SDS011;4492;48.736;9.092;2023-08-30T10:37:02;3.33;;;3.07;;
8913;SDS011;4492;48.736;9.092;2023-08-30T10:39:33;3.13;;;2.53;;
8913;SDS011;4492;48.736;9.092;2023-08-30T10:42:09;2.70;;;2.60;;
8913;SDS011;4492;48.736;9.092;2023-08-30T10:44:46;2.90;;;2.70;;
8913;SDS011;4492;48.736;9.092;2023-08-30T10:47:22;2.97;;;2.40;;
8913;SDS011;4492;48.736;9.092;2023-08-30T10:49:52;3.30;;;2.10;;
8913;SDS011;4492;48.736;9.092;2023-08-30T10:52:18;2.80;;;2.60;;
8913;SDS011;4492;48.736;9.092;2023-08-30T10:54:44;2.60;;;2.40;;
8913;SDS011;4492;48.736;9.092;2023-08-30T10:57:13;2.40;;;2.30;;
8913;SDS011;4492;48.736;9.092;2023-08-30T10:59:40;2.23;;;2.13;;
8913;SDS011;4492;48.736;9.092;2023-08-30T11:02:12;2.47;;;2.27;;
8913;SDS011;4492;48.736;9.092;2023-08-30T11:04:41;2.00;;;1.90;;
8913;SDS011;4492;48.736;9.092;2023-08-30T11:07:08;3.30;;;2.53;;
8913;SDS011;4492;48.736;9.092;2023-08-30T11:09:36;2.33;;;2.13;;
8913;SDS011;4492;48.736;9.092;2023-08-30T11:12:04;2.97;;;1.83;;
8913;SDS011;4492;48.736;9.092;2023-08-30T11:14:31;1.70;;;1.60;;
8913;SDS011;4492;48.736;9.092;2023-08-30T11:16:57;2.20;;;2.10;;
8913;SDS011;4492;48.736;9.092;2023-08-30T11:19:22;2.13;;;2.03;;
8913;SDS011;4492;48.736;9.092;2023-08-30T11:21:48;2.00;;;1.90;;
8913;SDS011;4492;48.736;9.092;2023-08-30T11:24:14;2.40;;;1.90;;
8913;SDS011;4492;48.736;9.092;2023-08-30T11:26:40;4.20;;;1.90;;
8913;SDS011;4492;48.736;9.092;2023-08-30T11:29:08;2.00;;;1.90;;
8913;SDS011;4492;48.736;9.092;2023-08-30T11:31:35;2.23;;;2.13;;
8913;SDS011;4492;48.736;9.092;2023-08-30T11:34:01;2.17;;;2.07;;
8913;SDS011;4492;48.736;9.092;2023-08-30T11:36:28;2.27;;;2.07;;
8913;SDS011;4492;48.736;9.092;2023-08-30T11:38:55;2.17;;;2.03;;
8913;SDS011;4492;48.736;9.092;2023-08-30T11:41:21;2.50;;;2.30;;
8913;SDS011;4492;48.736;9.092;2023-08-30T11:43:47;2.23;;;2.03;;
8913;SDS011;4492;48.736;9.092;2023-08-30T11:46:13;2.43;;;2.30;;
8913;SDS011;4492;48.736;9.092;2023-08-30T11:48:39;2.20;;;2.10;;
8913;SDS011;4492;48.736;9.092;2023-08-30T11:51:06;2.53;;;2.40;;
8913;SDS011;4492;48.736;9.092;2023-08-30T11:53:32;2.93;;;2.73;;
8913;SDS011;4492;48.736;9.092;2023-08-30T11:55:59;3.53;;;3.00;;
8913;SDS011;4492;48.736;9.092;2023-08-30T11:58:25;8.20;;;3.70;;
8913;SDS011;4492;48.736;9.092;2023-08-30T12:00:51;3.60;;;3.30;;
8913;SDS011;4492;48.736;9.092;2023-08-30T12:03:18;3.30;;;3.00;;
8913;SDS011;4492;48.736;9.092;2023-08-30T12:05:47;4.43;;;4.03;;
8913;SDS011;4492;48.736;9.092;2023-08-30T12:08:21;4.07;;;3.77;;
8913;SDS011;4492;48.736;9.092;2023-08-30T12:10:49;4.37;;;3.97;;
8913;SDS011;4492;48.736;9.092;2023-08-30T12:13:28;4.77;;;4.37;;
8913;SDS011;4492;48.736;9.092;2023-08-30T12:15:55;3.97;;;3.60;;
8913;SDS011;4492;48.736;9.092;2023-08-30T12:18:25;3.77;;;3.53;;
8913;SDS011;4492;48.736;9.092;2023-08-30T12:21:00;3.60;;;3.30;;
8913;SDS011;4492;48.736;9.092;2023-08-30T12:23:27;3.00;;;2.80;;
8913;SDS011;4492;48.736;9.092;2023-08-30T12:26:07;2.73;;;2.63;;
8913;SDS011;4492;48.736;9.092;2023-08-30T12:28:37;2.67;;;2.20;;
8913;SDS011;4492;48.736;9.092;2023-08-30T12:31:04;3.07;;;2.87;;
8913;SDS011;4492;48.736;9.092;2023-08-30T12:33:30;2.97;;;2.67;;
8913;SDS011;4492;48.736;9.092;2023-08-30T12:35:56;2.67;;;2.57;;
8913;SDS011;4492;48.736;9.092;2023-08-30T12:38:23;2.27;;;2.17;;
8913;SDS011;4492;48.736;9.092;2023-08-30T12:40:50;2.30;;;2.20;;
8913;SDS011;4492;48.736;9.092;2023-08-30T12:43:17;2.53;;;2.33;;
8913;SDS011;4492;48.736;9.092;2023-08-30T12:45:44;3.00;;;2.80;;
8913;SDS011;4492;48.736;9.092;2023-08-30T12:48:11;3.50;;;3.30;;
8913;SDS011;4492;48.736;9.092;2023-08-30T12:50:39;3.37;;;3.10;;
8913;SDS011;4492;48.736;9.092;2023-08-30T12:53:05;4.10;;;3.27;;
8913;SDS011;4492;48.736;9.092;2023-08-30T12:55:32;3.67;;;2.87;;
8913;SDS011;4492;48.736;9.092;2023-08-30T12:57:59;3.27;;;2.97;;
8913;SDS011;4492;48.736;9.092;2023-08-30T13:00:25;3.03;;;2.80;;
8913;SDS011;4492;48.736;9.092;2023-08-30T13:02:51;6.10;;;2.50;;
8913;SDS011;4492;48.736;9.092;2023-08-30T13:05:16;3.07;;;2.83;;
8913;SDS011;4492;48.736;9.092;2023-08-30T13:07:43;3.80;;;2.77;;
8913;SDS011;4492;48.736;9.092;2023-08-30T13:10:08;2.73;;;2.53;;
8913;SDS011;4492;48.736;9.092;2023-08-30T13:12:35;3.67;;;2.47;;
8913;SDS011;4492;48.736;9.092;2023-08-30T13:15:00;2.67;;;2.47;;
8913;SDS011;4492;48.736;9.092;2023-08-30T13:17:26;2.33;;;2.20;;
8913;SDS011;4492;48.736;9.092;2023-08-30T13:19:52;3.57;;;2.50;;
8913;SDS011;4492;48.736;9.092;2023-08-30T13:22:17;3.63;;;2.80;;
8913;SDS011;4492;48.736;9.092;2023-08-30T13:24:43;2.70;;;2.50;;
8913;SDS011;4492;48.736;9.092;2023-08-30T13:27:09;2.50;;;2.40;;
8913;SDS011;4492;48.736;9.092;2023-08-30T13:29:35;3.83;;;2.53;;
8913;SDS011;4492;48.736;9.092;2023-08-30T13:32:01;2.80;;;2.60;;
8913;SDS011;4492;48.736;9.092;2023-08-30T13:34:27;2.63;;;2.43;;
8913;SDS011;4492;48.736;9.092;2023-08-30T13:36:52;2.27;;;2.07;;
8913;SDS011;4492;48.736;9.092;2023-08-30T13:39:18;2.80;;;2.10;;
8913;SDS011;4492;48.736;9.092;2023-08-30T13:41:45;1.77;;;1.67;;
8913;SDS011;4492;48.736;9.092;2023-08-30T13:44:11;4.13;;;2.30;;
8913;SDS011;4492;48.736;9.092;2023-08-30T13:46:37;2.47;;;2.27;;
8913;SDS011;4492;48.736;9.092;2023-08-30T13:49:03;2.30;;;2.10;;
8913;SDS011;4492;48.736;9.092;2023-08-30T13:51:28;4.13;;;3.83;;
8913;SDS011;4492;48.736;9.092;2023-08-30T13:53:55;3.20;;;2.90;;
8913;SDS011;4492;48.736;9.092;2023-08-30T13:56:20;1.87;;;1.77;;
8913;SDS011;4492;48.736;9.092;2023-08-30T13:58:47;2.20;;;2.10;;
8913;SDS011;4492;48.736;9.092;2023-08-30T14:01:12;2.13;;;1.93;;
8913;SDS011;4492;48.736;9.092;2023-08-30T14:03:38;1.77;;;1.67;;
8913;SDS011;4492;48.736;9.092;2023-08-30T14:06:04;1.70;;;1.60;;
8913;SDS011;4492;48.736;9.092;2023-08-30T14:08:30;2.43;;;1.90;;
8913;SDS011;4492;48.736;9.092;2023-08-30T14:10:56;2.00;;;1.90;;
8913;SDS011;4492;48.736;9.092;2023-08-30T14:13:22;1.83;;;1.73;;
8913;SDS011;4492;48.736;9.092;2023-08-30T14:15:48;2.50;;;2.30;;
8913;SDS011;4492;48.736;9.092;2023-08-30T14:18:13;2.00;;;1.83;;
8913;SDS011;4492;48.736;9.092;2023-08-30T14:20:40;2.07;;;1.97;;
8913;SDS011;4492;48.736;9.092;2023-08-30T14:23:06;1.50;;;1.50;;
8913;SDS011;4492;48.736;9.092;2023-08-30T14:25:32;2.00;;;1.90;;
8913;SDS011;4492;48.736;9.092;2023-08-30T14:27:58;2.23;;;2.13;;
8913;SDS011;4492;48.736;9.092;2023-08-30T14:30:24;2.17;;;2.07;;
8913;SDS011;4492;48.736;9.092;2023-08-30T14:32:50;1.90;;;1.80;;
8913;SDS011;4492;48.736;9.092;2023-08-30T14:35:16;2.43;;;1.90;;
8913;SDS011;4492;48.736;9.092;2023-08-30T14:37:42;2.30;;;2.00;;
8913;SDS011;4492;48.736;9.092;2023-08-30T14:40:08;3.83;;;2.50;;
8913;SDS011;4492;48.736;9.092;2023-08-30T14:42:33;2.30;;;2.03;;
8913;SDS011;4492;48.736;9.092;2023-08-30T14:44:59;2.80;;;2.40;;
8913;SDS011;4492;48.736;9.092;2023-08-30T14:47:25;2.20;;;2.10;;
8913;SDS011;4492;48.736;9.092;2023-08-30T14:49:50;2.17;;;2.00;;
8913;SDS011;4492;48.736;9.092;2023-08-30T14:52:16;2.50;;;2.30;;
8913;SDS011;4492;48.736;9.092;2023-08-30T14:54:42;3.50;;;3.20;;
8913;SDS011;4492;48.736;9.092;2023-08-30T14:57:08;3.20;;;3.00;;
8913;SDS011;4492;48.736;9.092;2023-08-30T14:59:34;3.80;;;2.70;;
8913;SDS011;4492;48.736;9.092;2023-08-30T15:01:59;4.07;;;2.43;;
8913;SDS011;4492;48.736;9.092;2023-08-30T15:04:25;2.60;;;2.40;;
8913;SDS011;4492;48.736;9.092;2023-08-30T15:06:51;2.20;;;2.10;;